createdAt,value
2017-11-26T00:00:46.558Z,2.40
2017-11-26T00:03:17.323Z,2.10
2017-11-26T00:05:48.090Z,2.10
2017-11-26T00:08:18.854Z,2.43
2017-11-26T00:10:49.617Z,2.50
2017-11-26T00:13:20.386Z,2.30
2017-11-26T00:15:51.143Z,2.30
2017-11-26T00:18:21.898Z,2.30
2017-11-26T00:20:52.697Z,2.50
2017-11-26T00:23:23.442Z,2.50
2017-11-26T00:25:54.205Z,2.30
2017-11-26T00:28:24.968Z,2.17
2017-11-26T00:30:55.722Z,2.17
2017-11-26T00:33:26.488Z,2.20
2017-11-26T00:35:57.266Z,2.10
2017-11-26T00:38:28.013Z,2.30
2017-11-26T00:40:58.785Z,2.20
2017-11-26T00:43:29.537Z,2.10
2017-11-26T00:46:00.315Z,2.03
2017-11-26T00:48:31.078Z,1.80
2017-11-26T00:51:01.857Z,2.00
2017-11-26T00:53:32.626Z,2.20
2017-11-26T00:56:03.394Z,2.10
2017-11-26T00:58:34.146Z,1.97
2017-11-26T01:01:04.914Z,1.80
2017-11-26T01:03:35.685Z,1.80
2017-11-26T01:06:06.457Z,1.90
2017-11-26T01:08:37.197Z,1.80
2017-11-26T01:11:07.961Z,2.00
2017-11-26T01:13:38.726Z,1.73
2017-11-26T01:16:09.486Z,2.00
2017-11-26T01:18:40.246Z,1.60
2017-11-26T01:21:11.031Z,1.87
2017-11-26T01:23:41.804Z,1.60
2017-11-26T01:26:12.566Z,1.80
2017-11-26T01:28:43.345Z,1.70
2017-11-26T01:31:14.106Z,1.90
2017-11-26T01:33:44.878Z,1.87
2017-11-26T01:36:15.647Z,1.60
2017-11-26T01:38:46.402Z,1.60
2017-11-26T01:41:17.178Z,1.80
2017-11-26T01:43:47.958Z,2.00
2017-11-26T01:46:18.749Z,1.80
2017-11-26T01:48:50.189Z,1.80
2017-11-26T01:51:20.965Z,1.80
2017-11-26T01:53:51.715Z,1.80
2017-11-26T01:56:22.475Z,1.90
2017-11-26T01:58:53.238Z,1.80
2017-11-26T02:01:23.994Z,1.80
2017-11-26T02:03:55.498Z,2.03
2017-11-26T02:06:26.241Z,1.80
2017-11-26T02:08:57.014Z,2.00
2017-11-26T02:11:27.766Z,1.73
2017-11-26T02:13:58.539Z,1.77
2017-11-26T02:16:29.307Z,1.70
2017-11-26T02:19:00.082Z,2.00
2017-11-26T02:21:30.849Z,1.80
2017-11-26T02:24:01.605Z,2.00
2017-11-26T02:26:32.388Z,1.80
2017-11-26T02:29:03.159Z,1.53
2017-11-26T02:31:33.950Z,1.90
2017-11-26T02:34:04.736Z,2.00
2017-11-26T02:36:35.496Z,1.77
2017-11-26T02:39:06.274Z,1.90
2017-11-26T02:41:37.038Z,1.83
2017-11-26T02:44:07.826Z,1.63
2017-11-26T02:46:38.562Z,1.67
2017-11-26T02:49:09.357Z,1.70
2017-11-26T02:51:40.106Z,1.67
2017-11-26T02:54:10.902Z,1.53
2017-11-26T02:56:41.666Z,1.57
2017-11-26T02:59:12.422Z,1.77
2017-11-26T03:01:43.233Z,1.90
2017-11-26T03:04:13.969Z,1.90
2017-11-26T03:06:44.742Z,1.70
2017-11-26T03:09:15.537Z,1.70
2017-11-26T03:11:46.300Z,1.90
2017-11-26T03:14:17.057Z,1.70
2017-11-26T03:16:47.818Z,1.70
2017-11-26T03:19:18.587Z,1.60
2017-11-26T03:21:49.356Z,1.87
2017-11-26T03:24:20.105Z,1.80
2017-11-26T03:26:50.862Z,1.70
2017-11-26T03:29:21.648Z,2.03
2017-11-26T03:31:52.410Z,1.70
2017-11-26T03:34:23.177Z,1.67
2017-11-26T03:36:53.954Z,1.70
2017-11-26T03:39:24.722Z,1.80
2017-11-26T03:41:55.478Z,1.70
2017-11-26T03:44:26.238Z,1.90
2017-11-26T03:46:57.013Z,1.93
2017-11-26T03:49:27.761Z,1.70
2017-11-26T03:51:58.558Z,1.57
2017-11-26T03:54:29.314Z,1.80
2017-11-26T03:57:00.178Z,1.63
2017-11-26T03:59:30.947Z,1.90
2017-11-26T04:02:01.717Z,2.00
2017-11-26T04:04:32.461Z,1.80
2017-11-26T04:07:03.246Z,1.90
2017-11-26T04:09:34.008Z,1.90
2017-11-26T04:12:04.790Z,1.57
2017-11-26T04:14:35.530Z,1.80
2017-11-26T04:17:06.308Z,1.70
2017-11-26T04:19:37.068Z,1.67
2017-11-26T04:22:07.829Z,1.80
2017-11-26T04:24:38.601Z,1.67
2017-11-26T04:27:09.339Z,1.93
2017-11-26T04:29:40.163Z,1.70
2017-11-26T04:32:10.902Z,1.70
2017-11-26T04:34:41.669Z,1.80
2017-11-26T04:37:12.433Z,1.70
2017-11-26T04:39:43.210Z,1.67
2017-11-26T04:42:13.970Z,1.70
2017-11-26T04:44:44.725Z,1.90
2017-11-26T04:47:15.486Z,1.63
2017-11-26T04:49:46.246Z,1.50
2017-11-26T04:52:17.023Z,1.77
2017-11-26T04:54:47.771Z,1.50
2017-11-26T04:57:18.551Z,1.63
2017-11-26T04:59:49.298Z,1.53
2017-11-26T05:02:20.073Z,1.50
2017-11-26T05:04:50.819Z,1.40
2017-11-26T05:07:21.578Z,1.50
2017-11-26T05:09:52.350Z,1.50
2017-11-26T05:12:23.090Z,1.60
2017-11-26T05:14:53.868Z,1.67
2017-11-26T05:17:24.618Z,1.70
2017-11-26T05:19:55.399Z,1.50
2017-11-26T05:22:26.158Z,1.63
2017-11-26T05:24:56.930Z,1.60
2017-11-26T05:27:27.701Z,1.47
2017-11-26T05:29:58.450Z,1.40
2017-11-26T05:32:29.250Z,1.33
2017-11-26T05:35:00.013Z,1.60
2017-11-26T05:37:30.765Z,1.47
2017-11-26T05:40:01.542Z,1.30
2017-11-26T05:42:32.306Z,1.53
2017-11-26T05:45:03.071Z,1.40
2017-11-26T05:47:33.833Z,1.13
2017-11-26T05:50:04.589Z,1.30
2017-11-26T05:52:35.350Z,1.50
2017-11-26T05:55:06.106Z,1.30
2017-11-26T05:57:36.881Z,1.20
2017-11-26T06:00:07.646Z,1.20
2017-11-26T06:02:38.409Z,1.23
2017-11-26T06:05:09.176Z,1.40
2017-11-26T06:07:39.932Z,1.43
2017-11-26T06:10:10.695Z,1.40
2017-11-26T06:12:41.446Z,1.27
2017-11-26T06:15:12.225Z,1.50
2017-11-26T06:17:42.995Z,1.30
2017-11-26T06:20:13.754Z,1.30
2017-11-26T06:22:44.522Z,1.20
2017-11-26T06:25:15.298Z,1.40
2017-11-26T06:27:46.034Z,1.30
2017-11-26T06:30:16.837Z,1.40
2017-11-26T06:32:47.697Z,1.30
2017-11-26T06:35:18.465Z,1.30
2017-11-26T06:37:49.220Z,1.30
2017-11-26T06:40:19.986Z,1.10
2017-11-26T06:42:50.751Z,1.20
2017-11-26T06:45:21.518Z,1.40
2017-11-26T06:47:52.269Z,1.20
2017-11-26T06:50:23.041Z,1.30
2017-11-26T06:52:53.805Z,1.17
2017-11-26T06:55:24.569Z,1.30
2017-11-26T06:57:55.342Z,1.10
2017-11-26T07:00:26.104Z,1.10
2017-11-26T07:02:56.876Z,1.30
2017-11-26T07:05:27.626Z,1.20
2017-11-26T07:07:58.393Z,1.20
2017-11-26T07:10:29.153Z,1.20
2017-11-26T07:12:59.930Z,1.20
2017-11-26T07:15:30.701Z,1.47
2017-11-26T07:18:01.466Z,1.50
2017-11-26T07:20:32.246Z,1.10
2017-11-26T07:23:02.993Z,1.20
2017-11-26T07:25:33.758Z,1.37
2017-11-26T07:28:04.522Z,1.40
2017-11-26T07:30:35.301Z,1.23
2017-11-26T07:33:06.061Z,1.60
2017-11-26T07:35:36.818Z,1.20
2017-11-26T07:38:07.593Z,1.30
2017-11-26T07:40:38.346Z,1.20
2017-11-26T07:43:09.133Z,1.30
2017-11-26T07:45:39.886Z,1.30
2017-11-26T07:48:10.654Z,1.50
2017-11-26T07:50:41.413Z,1.40
2017-11-26T07:53:12.169Z,1.40
2017-11-26T07:55:42.945Z,1.30
2017-11-26T07:58:13.696Z,1.33
2017-11-26T08:00:44.453Z,1.20
2017-11-26T08:03:15.222Z,1.40
2017-11-26T08:05:45.986Z,1.30
2017-11-26T08:08:16.758Z,1.40
2017-11-26T08:10:47.501Z,1.30
2017-11-26T08:13:18.270Z,1.40
2017-11-26T08:15:49.030Z,1.37
2017-11-26T08:18:19.825Z,1.30
2017-11-26T08:20:50.571Z,1.50
2017-11-26T08:23:21.330Z,1.30
2017-11-26T08:25:52.085Z,1.30
2017-11-26T08:28:22.861Z,1.30
2017-11-26T08:30:53.615Z,1.20
2017-11-26T08:33:24.394Z,1.40
2017-11-26T08:35:55.146Z,1.47
2017-11-26T08:38:25.917Z,1.40
2017-11-26T08:40:56.674Z,1.30
2017-11-26T08:43:27.461Z,1.50
2017-11-26T08:45:58.218Z,1.43
2017-11-26T08:48:28.994Z,1.10
2017-11-26T08:50:59.758Z,1.43
2017-11-26T08:53:30.527Z,1.30
2017-11-26T08:56:01.334Z,1.37
2017-11-26T08:58:32.114Z,1.37
2017-11-26T09:01:02.856Z,1.40
2017-11-26T09:03:33.634Z,1.20
2017-11-26T09:06:04.397Z,1.40
2017-11-26T09:08:35.174Z,1.20
2017-11-26T09:11:05.947Z,1.50
2017-11-26T09:13:36.717Z,1.40
2017-11-26T09:16:07.486Z,1.30
2017-11-26T09:18:38.255Z,1.20
2017-11-26T09:21:09.034Z,0.97
2017-11-26T09:23:39.767Z,1.30
2017-11-26T09:26:10.551Z,1.37
2017-11-26T09:28:41.289Z,1.37
2017-11-26T09:31:12.048Z,1.10
2017-11-26T09:33:42.818Z,1.30
2017-11-26T09:36:13.566Z,1.23
2017-11-26T09:38:44.333Z,1.27
2017-11-26T09:41:15.094Z,1.10
2017-11-26T09:43:45.885Z,1.20
2017-11-26T09:46:16.616Z,1.27
2017-11-26T09:48:47.402Z,1.40
2017-11-26T09:51:18.158Z,1.40
2017-11-26T09:53:48.946Z,1.20
2017-11-26T09:56:19.705Z,1.23
2017-11-26T09:58:50.490Z,1.57
2017-11-26T10:01:21.257Z,1.30
2017-11-26T10:03:52.017Z,1.20
2017-11-26T10:06:22.774Z,1.30
2017-11-26T10:08:53.583Z,1.33
2017-11-26T10:11:24.318Z,1.40
2017-11-26T10:13:55.093Z,1.27
2017-11-26T10:16:25.880Z,1.30
2017-11-26T10:18:56.663Z,1.43
2017-11-26T10:21:27.417Z,1.10
2017-11-26T10:23:58.187Z,1.50
2017-11-26T10:26:28.941Z,1.50
2017-11-26T10:28:59.734Z,1.50
2017-11-26T10:31:30.473Z,1.50
2017-11-26T10:34:01.249Z,1.20
2017-11-26T10:36:32.008Z,1.40
2017-11-26T10:39:02.778Z,1.60
2017-11-26T10:41:33.535Z,1.40
2017-11-26T10:44:04.305Z,1.40
2017-11-26T10:46:35.085Z,1.30
2017-11-26T10:49:05.846Z,1.60
2017-11-26T10:51:36.603Z,1.23
2017-11-26T10:54:07.396Z,1.40
2017-11-26T10:56:38.150Z,1.37
2017-11-26T10:59:08.917Z,1.40
2017-11-26T11:01:39.693Z,1.30
2017-11-26T11:04:10.457Z,1.10
2017-11-26T11:06:41.221Z,1.30
2017-11-26T11:09:11.998Z,1.37
2017-11-26T11:11:42.757Z,1.57
2017-11-26T11:14:13.522Z,1.30
2017-11-26T11:16:44.273Z,1.27
2017-11-26T11:19:15.050Z,1.53
2017-11-26T11:21:45.801Z,1.50
2017-11-26T11:24:16.569Z,1.27
2017-11-26T11:26:47.335Z,1.50
2017-11-26T11:29:18.087Z,1.50
2017-11-26T11:31:48.849Z,1.53
2017-11-26T11:34:19.614Z,1.43
2017-11-26T11:36:50.366Z,1.30
2017-11-26T11:39:21.126Z,1.40
2017-11-26T11:41:51.908Z,1.40
2017-11-26T11:44:22.670Z,1.30
2017-11-26T11:46:53.469Z,1.43
2017-11-26T11:49:24.197Z,1.53
2017-11-26T11:51:54.969Z,1.37
2017-11-26T11:54:25.720Z,1.50
2017-11-26T11:56:56.483Z,1.37
2017-11-26T11:59:27.237Z,1.60
2017-11-26T12:01:58.119Z,1.43
2017-11-26T12:04:28.881Z,1.70
2017-11-26T12:06:59.657Z,1.43
2017-11-26T12:09:30.407Z,1.50
2017-11-26T12:12:01.177Z,1.60
2017-11-26T12:14:31.953Z,1.53
2017-11-26T12:17:02.747Z,1.40
2017-11-26T12:19:33.498Z,1.40
2017-11-26T12:22:04.275Z,1.53
2017-11-26T12:24:35.038Z,1.50
2017-11-26T12:27:05.793Z,1.40
2017-11-26T12:29:36.557Z,1.40
2017-11-26T12:32:07.336Z,1.50
2017-11-26T12:34:38.094Z,1.60
2017-11-26T12:37:08.861Z,1.50
2017-11-26T12:39:39.638Z,1.60
2017-11-26T12:42:10.389Z,1.47
2017-11-26T12:44:41.167Z,1.40
2017-11-26T12:47:11.925Z,1.60
2017-11-26T12:49:42.687Z,1.60
2017-11-26T12:52:13.441Z,1.50
2017-11-26T12:54:44.328Z,1.53
2017-11-26T12:57:15.065Z,1.53
2017-11-26T12:59:45.827Z,1.70
2017-11-26T13:02:16.640Z,1.60
2017-11-26T13:04:47.418Z,1.40
2017-11-26T13:07:18.198Z,1.60
2017-11-26T13:09:48.954Z,1.53
2017-11-26T13:12:19.746Z,1.40
2017-11-26T13:14:50.512Z,1.57
2017-11-26T13:17:21.289Z,1.60
2017-11-26T13:19:52.057Z,1.60
2017-11-26T13:22:22.810Z,1.50
2017-11-26T13:24:53.590Z,1.50
2017-11-26T13:27:24.341Z,1.40
2017-11-26T13:29:55.136Z,1.40
2017-11-26T13:32:25.898Z,1.50
2017-11-26T13:34:56.653Z,1.40
2017-11-26T13:37:27.394Z,1.33
2017-11-26T13:39:58.162Z,1.10
2017-11-26T13:42:28.926Z,1.40
2017-11-26T13:44:59.693Z,1.50
2017-11-26T13:47:30.506Z,1.30
2017-11-26T13:50:01.250Z,1.40
2017-11-26T13:52:32.028Z,1.60
2017-11-26T13:55:02.770Z,1.40
2017-11-26T13:57:33.574Z,1.40
2017-11-26T14:00:04.317Z,1.40
2017-11-26T14:02:35.107Z,1.30
2017-11-26T14:05:05.862Z,1.50
2017-11-26T14:07:36.637Z,1.50
2017-11-26T14:10:07.409Z,1.50
2017-11-26T14:12:38.191Z,1.50
2017-11-26T14:15:08.954Z,1.30
2017-11-26T14:17:39.699Z,1.50
2017-11-26T14:20:10.466Z,1.60
2017-11-26T14:22:41.217Z,1.30
2017-11-26T14:25:11.998Z,1.27
2017-11-26T14:27:42.798Z,1.60
2017-11-26T14:30:13.570Z,1.70
2017-11-26T14:32:44.354Z,1.37
2017-11-26T14:35:15.146Z,1.70
2017-11-26T14:37:45.906Z,1.70
2017-11-26T14:40:16.688Z,1.70
2017-11-26T14:42:47.454Z,1.70
2017-11-26T14:45:18.243Z,1.53
2017-11-26T14:47:48.993Z,1.47
2017-11-26T14:50:19.765Z,1.80
2017-11-26T14:52:50.545Z,1.80
2017-11-26T14:55:22.293Z,1.50
2017-11-26T14:57:53.077Z,1.83
2017-11-26T15:00:23.820Z,1.60
2017-11-26T15:02:54.578Z,1.70
2017-11-26T15:05:25.345Z,1.73
2017-11-26T15:07:56.107Z,1.53
2017-11-26T15:10:26.874Z,1.60
2017-11-26T15:12:57.621Z,1.87
2017-11-26T15:15:28.389Z,1.70
2017-11-26T15:17:59.528Z,1.90
2017-11-26T15:20:30.295Z,1.83
2017-11-26T15:23:01.028Z,1.90
2017-11-26T15:25:31.802Z,1.90
2017-11-26T15:28:02.593Z,1.70
2017-11-26T15:30:33.361Z,1.90
2017-11-26T15:33:04.144Z,1.70
2017-11-26T15:35:34.889Z,1.77
2017-11-26T15:38:05.674Z,1.90
2017-11-26T15:40:36.419Z,2.07
2017-11-26T15:43:07.214Z,1.80
2017-11-26T15:45:37.957Z,1.80
2017-11-26T15:48:08.727Z,1.80
2017-11-26T15:50:39.481Z,2.00
2017-11-26T15:53:10.257Z,1.90
2017-11-26T15:55:41.017Z,1.67
2017-11-26T15:58:11.799Z,2.07
2017-11-26T16:00:42.559Z,1.80
2017-11-26T16:03:13.354Z,1.80
2017-11-26T16:05:44.122Z,1.80
2017-11-26T16:08:14.887Z,1.80
2017-11-26T16:10:45.629Z,2.00
2017-11-26T16:13:16.437Z,2.00
2017-11-26T16:15:47.194Z,1.87
2017-11-26T16:18:18.007Z,1.90
2017-11-26T16:20:48.745Z,1.77
2017-11-26T16:23:19.534Z,1.90
2017-11-26T16:25:51.125Z,1.87
2017-11-26T16:28:21.912Z,2.23
2017-11-26T16:30:52.678Z,2.10
2017-11-26T16:33:23.449Z,1.93
2017-11-26T16:35:54.234Z,1.90
2017-11-26T16:38:24.989Z,2.00
2017-11-26T16:40:55.779Z,1.97
2017-11-26T16:43:26.534Z,2.10
2017-11-26T16:45:57.329Z,2.13
2017-11-26T16:48:28.094Z,2.10
2017-11-26T16:50:58.865Z,2.20
2017-11-26T16:53:29.622Z,2.30
2017-11-26T16:56:00.410Z,2.40
2017-11-26T16:58:31.180Z,2.30
2017-11-26T17:01:01.922Z,2.33
2017-11-26T17:03:32.698Z,2.17
2017-11-26T17:06:03.437Z,2.30
2017-11-26T17:08:34.289Z,2.40
2017-11-26T17:11:05.033Z,2.30
2017-11-26T17:13:35.830Z,2.10
2017-11-26T17:16:06.585Z,2.03
2017-11-26T17:18:37.346Z,2.23
2017-11-26T17:21:08.110Z,2.20
2017-11-26T17:23:38.887Z,2.20
2017-11-26T17:26:09.646Z,2.50
2017-11-26T17:28:40.451Z,2.30
2017-11-26T17:31:11.204Z,2.20
2017-11-26T17:33:41.977Z,2.10
2017-11-26T17:36:13.081Z,2.30
2017-11-26T17:38:43.837Z,2.40
2017-11-26T17:41:14.616Z,2.50
2017-11-26T17:43:45.385Z,2.47
2017-11-26T17:46:16.146Z,2.30
2017-11-26T17:48:46.914Z,2.10
2017-11-26T17:51:17.666Z,2.20
2017-11-26T17:53:48.434Z,2.10
2017-11-26T17:56:19.212Z,2.30
2017-11-26T17:58:49.954Z,2.20
2017-11-26T18:01:20.726Z,2.10
2017-11-26T18:03:51.508Z,2.30
2017-11-26T18:06:22.338Z,2.00
2017-11-26T18:08:53.086Z,2.20
2017-11-26T18:11:23.834Z,2.20
2017-11-26T18:13:54.620Z,2.13
2017-11-26T18:16:25.390Z,2.27
2017-11-26T18:18:56.149Z,2.30
2017-11-26T18:21:26.928Z,2.37
2017-11-26T18:23:57.679Z,2.10
2017-11-26T18:26:28.462Z,2.07
2017-11-26T18:28:59.229Z,2.13
2017-11-26T18:31:30.005Z,2.03
2017-11-26T18:34:00.758Z,2.00
2017-11-26T18:36:31.534Z,2.23
2017-11-26T18:39:02.325Z,2.13
2017-11-26T18:41:33.111Z,2.33
2017-11-26T18:44:03.867Z,2.07
2017-11-26T18:46:34.648Z,2.17
2017-11-26T18:49:05.407Z,2.50
2017-11-26T18:51:36.201Z,2.20
2017-11-26T18:54:06.978Z,2.30
2017-11-26T18:56:37.735Z,2.40
2017-11-26T18:59:08.495Z,2.40
2017-11-26T19:01:39.252Z,2.47
2017-11-26T19:04:10.017Z,2.30
2017-11-26T19:06:40.786Z,2.10
2017-11-26T19:09:11.538Z,2.10
2017-11-26T19:11:42.342Z,2.10
2017-11-26T19:14:13.098Z,2.20
2017-11-26T19:16:43.873Z,2.17
2017-11-26T19:19:14.610Z,2.30
2017-11-26T19:21:45.393Z,2.20
2017-11-26T19:24:16.169Z,2.30
2017-11-26T19:26:46.951Z,2.20
2017-11-26T19:29:17.710Z,2.40
2017-11-26T19:31:48.494Z,2.03
2017-11-26T19:34:19.250Z,2.50
2017-11-26T19:36:50.026Z,2.30
2017-11-26T19:39:20.806Z,2.30
2017-11-26T19:41:51.562Z,2.27
2017-11-26T19:44:22.320Z,2.20
2017-11-26T19:46:53.090Z,2.40
2017-11-26T19:49:23.839Z,2.20
2017-11-26T19:51:54.605Z,2.20
2017-11-26T19:54:25.411Z,2.37
2017-11-26T19:56:56.169Z,2.20
2017-11-26T19:59:26.941Z,2.10
2017-11-26T20:01:57.679Z,2.03
2017-11-26T20:04:28.444Z,2.10
2017-11-26T20:06:59.218Z,2.00
2017-11-26T20:09:30.010Z,2.10
2017-11-26T20:12:00.754Z,2.10
2017-11-26T20:14:31.531Z,2.20
2017-11-26T20:17:02.294Z,2.23
2017-11-26T20:19:33.092Z,2.30
2017-11-26T20:22:03.864Z,2.40
2017-11-26T20:24:34.685Z,2.10
2017-11-26T20:27:05.456Z,2.40
2017-11-26T20:29:36.230Z,2.10
2017-11-26T20:32:07.036Z,2.27
2017-11-26T20:34:37.802Z,2.00
2017-11-26T20:37:08.606Z,2.10
2017-11-26T20:39:39.369Z,2.10
2017-11-26T20:42:10.146Z,2.47
2017-11-26T20:44:40.939Z,2.30
2017-11-26T20:47:11.687Z,2.20
2017-11-26T20:49:42.463Z,2.10
2017-11-26T20:52:13.246Z,2.10
2017-11-26T20:54:44.018Z,2.40
2017-11-26T20:57:14.835Z,2.30
2017-11-26T20:59:45.595Z,2.37
2017-11-26T21:02:16.366Z,2.23
2017-11-26T21:04:47.128Z,2.20
2017-11-26T21:07:17.903Z,2.37
2017-11-26T21:09:48.667Z,2.40
2017-11-26T21:12:19.489Z,2.40
2017-11-26T21:14:50.252Z,2.10
2017-11-26T21:17:21.026Z,2.27
2017-11-26T21:19:51.820Z,2.50
2017-11-26T21:22:22.582Z,2.30
2017-11-26T21:24:53.357Z,2.30
2017-11-26T21:27:24.137Z,2.40
2017-11-26T21:29:54.916Z,2.50
2017-11-26T21:32:25.686Z,2.20
2017-11-26T21:34:56.448Z,2.33
2017-11-26T21:37:27.221Z,2.37
2017-11-26T21:39:57.971Z,2.20
2017-11-26T21:42:28.763Z,2.70
2017-11-26T21:44:59.526Z,2.50
2017-11-26T21:47:30.306Z,2.40
2017-11-26T21:50:01.088Z,2.40
2017-11-26T21:52:31.928Z,2.57
2017-11-26T21:55:02.685Z,2.40
2017-11-26T21:57:33.435Z,2.50
2017-11-26T22:00:04.211Z,2.50
2017-11-26T22:02:34.958Z,2.30
2017-11-26T22:05:05.725Z,2.20
2017-11-26T22:07:36.502Z,2.30
2017-11-26T22:10:07.969Z,2.30
2017-11-26T22:12:38.746Z,2.47
2017-11-26T22:15:09.493Z,2.20
2017-11-26T22:17:40.266Z,2.40
2017-11-26T22:20:11.038Z,2.50
2017-11-26T22:22:41.787Z,2.43
2017-11-26T22:25:12.566Z,2.30
2017-11-26T22:27:43.330Z,2.50
2017-11-26T22:30:14.100Z,2.30
2017-11-26T22:32:44.870Z,2.50
2017-11-26T22:35:15.622Z,2.40
2017-11-26T22:37:46.369Z,2.30
2017-11-26T22:40:17.167Z,2.10
2017-11-26T22:42:47.938Z,2.50
2017-11-26T22:45:18.726Z,2.33
2017-11-26T22:47:49.498Z,2.70
2017-11-26T22:50:20.254Z,2.40
2017-11-26T22:52:51.027Z,2.03
2017-11-26T22:55:21.775Z,2.43
2017-11-26T22:57:52.558Z,2.40
2017-11-26T23:00:23.336Z,2.40
2017-11-26T23:02:54.111Z,2.40
2017-11-26T23:05:24.859Z,2.40
2017-11-26T23:07:55.649Z,2.27
2017-11-26T23:10:26.400Z,2.20
2017-11-26T23:12:57.165Z,2.30
2017-11-26T23:15:27.961Z,2.20
2017-11-26T23:17:58.721Z,2.30
2017-11-26T23:20:29.487Z,2.20
2017-11-26T23:23:00.242Z,2.20
2017-11-26T23:25:31.002Z,2.10
2017-11-26T23:28:01.768Z,2.37
2017-11-26T23:30:32.544Z,2.50
2017-11-26T23:33:03.304Z,2.20
2017-11-26T23:35:34.078Z,2.40
2017-11-26T23:38:04.865Z,2.10
2017-11-26T23:40:35.614Z,2.30
2017-11-26T23:43:06.381Z,2.13
2017-11-26T23:45:37.147Z,2.30
2017-11-26T23:48:07.898Z,2.10
2017-11-26T23:50:38.667Z,2.30
2017-11-26T23:53:09.450Z,2.10
2017-11-26T23:55:40.217Z,2.20
2017-11-26T23:58:10.988Z,2.30
